Indianapolis, IN (46239)

11:04 PM EST on December 24, 2014 (GMT -0500)
Wildcat Park-SE Side | Change Station
CLOSE
Current Station
Personal Weather Station
Location: Indianapolis, IN
Elevation: 850 ft
Nearby Weather Stations

Elev 850 ft 39.69 °N, 86.03 °W | Updated 9 seconds ago

Overcast
Overcast
36.6 °F
Feels Like 30 °F
N
9.0
Wind Variable Wind from West
Gusts 14.0 mph

Today
High -- | Low -- °F
--% Chance of Precip.
Yesterday
High -- | Low -- °F
Precip. -- in
8:02 AM 5:24 PM
Waxing Crescent, 13% visible
Pressure 29.71 in
Visibility 9.0 miles
Clouds Few 1000 ft
Overcast 1300 ft
Windchill 30 °F
Dew Point 35 °F
Humidity 93%
Rainfall 0.20 in
Snow Depth Not available.
UV 0 out of 12
Pollen .10 out of 12
Air Quality Not available.
Flu Activity Not available.
METAR KIND 250354Z 25013KT 9SM -RASN FEW010 OVC013 02/01 A2969 RMK AO2 RAB39SNB39 SLP059 P0000 T00170006

More Conditions Fewer Conditions

Pressure 29.71 in
Visibility 9.0 miles
Clouds Few 1000 ft
Overcast 1300 ft
Windchill 30 °F
Dew Point 35 °F
Humidity 93%
Rainfall 0.20 in
Snow Depth Not available.
UV 0 out of 12
Pollen .10 out of 12
Air Quality Not available.
Flu Activity Not available.
METAR KIND 250354Z 25013KT 9SM -RASN FEW010 OVC013 02/01 A2969 RMK AO2 RAB39SNB39 SLP059 P0000 T00170006

More Conditions Fewer Conditions

10-Day Weather Forecast

Almanac

Astronomy

Dec. 24, 2014 Rise Set
Actual Time
Civil Twilight
Nautical Twilight
Astronomical Twilight
Moon
Length of Visible Light
Length of Day
Tomorrow will be .
, % of the Moon is Illuminated

Today's Extremes

State Highs State Lows

Community

WunderPhotos

Upload Photos

1,780,226 photos uploaded!

WunderBlogs® & News

Nearby

Air Quality

  Air Quality AQ Index Pollutant
Not available.

Snow Depth

Station Depth Elevation

Earthquake Activity

City Distance Mag. Time & Date
Minimum magnitude displayed is 2.5.

Coastal Water Temperatures

Place Temperature

Nearby Weather Stations